createdAt,value
2017-04-21T00:00:24.040Z,1026.05
2017-04-21T00:01:24.045Z,1026.01
2017-04-21T00:02:24.049Z,1026.04
2017-04-21T00:03:24.057Z,1026.04
2017-04-21T00:04:24.113Z,1025.97
2017-04-21T00:05:24.066Z,1026.01
2017-04-21T00:06:24.072Z,1026.01
2017-04-21T00:07:24.079Z,1025.99
2017-04-21T00:08:24.086Z,1025.98
2017-04-21T00:09:24.292Z,1026
2017-04-21T00:10:24.096Z,1025.96
2017-04-21T00:11:24.101Z,1026
2017-04-21T00:12:24.108Z,1025.96
2017-04-21T00:13:24.112Z,1025.96
2017-04-21T00:14:24.117Z,1025.94
2017-04-21T00:15:24.174Z,1025.95
2017-04-21T00:16:24.130Z,1025.96
2017-04-21T00:17:24.136Z,1025.96
2017-04-21T00:18:24.143Z,1025.98
2017-04-21T00:19:24.148Z,1025.94
2017-04-21T00:20:24.153Z,1025.96
2017-04-21T00:21:24.159Z,1025.93
2017-04-21T00:22:24.165Z,1025.94
2017-04-21T00:23:24.221Z,1025.93
2017-04-21T00:24:24.177Z,1025.94
2017-04-21T00:25:24.182Z,1025.93
2017-04-21T00:26:24.189Z,1025.89
2017-04-21T00:27:24.244Z,1025.92
2017-04-21T00:28:24.199Z,1025.89
2017-04-21T00:29:24.205Z,1025.87
2017-04-21T00:30:24.211Z,1025.89
2017-04-21T00:31:24.216Z,1025.86
2017-04-21T00:32:24.221Z,1025.86
2017-04-21T00:33:24.228Z,1025.84
2017-04-21T00:34:24.234Z,1025.83
2017-04-21T00:35:24.241Z,1025.8
2017-04-21T00:36:24.246Z,1025.79
2017-04-21T00:37:24.250Z,1025.8
2017-04-21T00:38:24.257Z,1025.8
2017-04-21T00:39:24.263Z,1025.79
2017-04-21T00:40:24.268Z,1025.8
2017-04-21T00:41:24.330Z,1025.78
2017-04-21T00:42:24.330Z,1025.77
2017-04-21T00:43:24.285Z,1025.78
2017-04-21T00:44:24.291Z,1025.78
2017-04-21T00:45:24.346Z,1025.73
2017-04-21T00:46:24.300Z,1025.74
2017-04-21T00:47:24.306Z,1025.72
2017-04-21T00:48:24.364Z,1025.74
2017-04-21T00:49:24.371Z,1025.73
2017-04-21T00:50:24.326Z,1025.71
2017-04-21T00:51:24.382Z,1025.7
2017-04-21T00:52:24.339Z,1025.7
2017-04-21T00:53:24.342Z,1025.7
2017-04-21T00:54:24.348Z,1025.67
2017-04-21T00:55:24.354Z,1025.64
2017-04-21T00:56:24.359Z,1025.66
2017-04-21T00:57:24.364Z,1025.64
2017-04-21T00:58:24.370Z,1025.63
2017-04-21T00:59:24.374Z,1025.62
2017-04-21T01:00:24.380Z,1025.62
2017-04-21T01:01:24.387Z,1025.63
2017-04-21T01:02:24.393Z,1025.64
2017-04-21T01:03:24.449Z,1025.63
2017-04-21T01:04:24.403Z,1025.62
2017-04-21T01:05:24.409Z,1025.64
2017-04-21T01:06:24.416Z,1025.6
2017-04-21T01:07:24.421Z,1025.61
2017-04-21T01:08:24.427Z,1025.61
2017-04-21T01:09:24.432Z,1025.6
2017-04-21T01:10:24.488Z,1025.59
2017-04-21T01:11:24.442Z,1025.61
2017-04-21T01:12:24.448Z,1025.57
2017-04-21T01:13:24.453Z,1025.58
2017-04-21T01:14:24.460Z,1025.56
2017-04-21T01:15:24.465Z,1025.56
2017-04-21T01:16:24.471Z,1025.55
2017-04-21T01:17:24.479Z,1025.57
2017-04-21T01:18:24.533Z,1025.56
2017-04-21T01:19:24.487Z,1025.59
2017-04-21T01:20:24.543Z,1025.56
2017-04-21T01:21:24.499Z,1025.57
2017-04-21T01:22:24.503Z,1025.57
2017-04-21T01:23:24.511Z,1025.56
2017-04-21T01:24:24.518Z,1025.55
2017-04-21T01:25:24.522Z,1025.54
2017-04-21T01:26:24.525Z,1025.51
2017-04-21T01:27:24.532Z,1025.51
2017-04-21T01:28:24.536Z,1025.51
2017-04-21T01:29:24.542Z,1025.56
2017-04-21T01:30:24.599Z,1025.53
2017-04-21T01:31:24.554Z,1025.52
2017-04-21T01:32:24.559Z,1025.53
2017-04-21T01:33:24.565Z,1025.49
2017-04-21T01:34:24.572Z,1025.49
2017-04-21T01:35:24.577Z,1025.45
2017-04-21T01:36:24.581Z,1025.45
2017-04-21T01:37:24.588Z,1025.42
2017-04-21T01:38:24.592Z,1025.4
2017-04-21T01:39:24.653Z,1025.4
2017-04-21T01:40:24.603Z,1025.43
2017-04-21T01:41:24.609Z,1025.37
2017-04-21T01:42:24.615Z,1025.34
2017-04-21T01:43:24.670Z,1025.34
2017-04-21T01:44:24.625Z,1025.36
2017-04-21T01:45:24.631Z,1025.34
2017-04-21T01:46:24.687Z,1025.32
2017-04-21T01:47:24.642Z,1025.33
2017-04-21T01:48:24.647Z,1025.35
2017-04-21T01:49:24.652Z,1025.35
2017-04-21T01:50:24.659Z,1025.32
2017-04-21T01:51:24.664Z,1025.33
2017-04-21T01:52:24.670Z,1025.3
2017-04-21T01:53:24.676Z,1025.35
2017-04-21T01:54:24.681Z,1025.34
2017-04-21T01:55:24.685Z,1025.34
2017-04-21T01:56:24.692Z,1025.32
2017-04-21T01:57:24.699Z,1025.32
2017-04-21T01:58:24.703Z,1025.3
2017-04-21T01:59:24.708Z,1025.3
2017-04-21T02:00:24.714Z,1025.29
2017-04-21T02:01:24.719Z,1025.29
2017-04-21T02:02:24.723Z,1025.25
2017-04-21T02:03:24.729Z,1025.28
2017-04-21T02:04:24.734Z,1025.26
2017-04-21T02:05:24.740Z,1025.22
2017-04-21T02:06:24.746Z,1025.2
2017-04-21T02:07:24.751Z,1025.21
2017-04-21T02:08:24.756Z,1025.17
2017-04-21T02:09:24.763Z,1025.21
2017-04-21T02:10:24.768Z,1025.19
2017-04-21T02:11:24.774Z,1025.15
2017-04-21T02:12:24.781Z,1025.13
2017-04-21T02:13:24.783Z,1025.12
2017-04-21T02:14:24.790Z,1025.17
2017-04-21T02:15:24.795Z,1025.16
2017-04-21T02:16:24.802Z,1025.14
2017-04-21T02:17:24.806Z,1025.17
2017-04-21T02:18:24.811Z,1025.15
2017-04-21T02:19:24.817Z,1025.16
2017-04-21T02:20:24.823Z,1025.17
2017-04-21T02:21:24.829Z,1025.2
2017-04-21T02:22:24.835Z,1025.15
2017-04-21T02:23:24.840Z,1025.16
2017-04-21T02:24:24.843Z,1025.14
2017-04-21T02:25:24.900Z,1025.14
2017-04-21T02:26:24.855Z,1025.11
2017-04-21T02:27:24.862Z,1025.07
2017-04-21T02:28:24.865Z,1025.09
2017-04-21T02:29:24.872Z,1025.04
2017-04-21T02:30:24.878Z,1025.04
2017-04-21T02:31:24.882Z,1025.03
2017-04-21T02:32:24.895Z,1024.97
2017-04-21T02:33:24.894Z,1025.01
2017-04-21T02:34:24.898Z,1024.95
2017-04-21T02:35:24.904Z,1024.95
2017-04-21T02:36:24.910Z,1024.93
2017-04-21T02:37:24.965Z,1024.95
2017-04-21T02:38:24.972Z,1024.92
2017-04-21T02:39:24.926Z,1024.92
2017-04-21T02:40:24.931Z,1024.91
2017-04-21T02:41:24.937Z,1024.92
2017-04-21T02:42:24.943Z,1024.9
2017-04-21T02:43:24.947Z,1024.89
2017-04-21T02:44:24.951Z,1024.88
2017-04-21T02:45:24.959Z,1024.85
2017-04-21T02:46:24.967Z,1024.9
2017-04-21T02:47:24.969Z,1024.86
2017-04-21T02:48:24.975Z,1024.85
2017-04-21T02:49:24.982Z,1024.87
2017-04-21T02:50:24.991Z,1024.84
2017-04-21T02:51:24.990Z,1024.83
2017-04-21T02:52:25.047Z,1024.79
2017-04-21T02:53:25.001Z,1024.77
2017-04-21T02:54:25.009Z,1024.81
2017-04-21T02:55:25.013Z,1024.83
2017-04-21T02:56:25.017Z,1024.82
2017-04-21T02:57:25.023Z,1024.84
2017-04-21T02:58:25.081Z,1024.79
2017-04-21T02:59:25.035Z,1024.81
2017-04-21T03:00:25.089Z,1024.76
2017-04-21T03:01:25.094Z,1024.77
2017-04-21T03:02:25.051Z,1024.8
2017-04-21T03:03:25.105Z,1024.76
2017-04-21T03:04:25.060Z,1024.78
2017-04-21T03:05:25.065Z,1024.75
2017-04-21T03:06:25.121Z,1024.77
2017-04-21T03:07:25.078Z,1024.73
2017-04-21T03:08:25.082Z,1024.75
2017-04-21T03:09:25.137Z,1024.77
2017-04-21T03:10:25.093Z,1024.71
2017-04-21T03:11:25.099Z,1024.7
2017-04-21T03:12:25.103Z,1024.74
2017-04-21T03:13:25.160Z,1024.66
2017-04-21T03:14:25.115Z,1024.71
2017-04-21T03:15:25.119Z,1024.69
2017-04-21T03:16:25.125Z,1024.68
2017-04-21T03:17:25.131Z,1024.71
2017-04-21T03:18:25.136Z,1024.7
2017-04-21T03:19:25.140Z,1024.69
2017-04-21T03:20:25.145Z,1024.69
2017-04-21T03:21:25.153Z,1024.67
2017-04-21T03:22:25.158Z,1024.65
2017-04-21T03:23:25.161Z,1024.63
2017-04-21T03:24:25.216Z,1024.66
2017-04-21T03:25:25.222Z,1024.66
2017-04-21T03:26:25.181Z,1024.67
2017-04-21T03:27:25.233Z,1024.63
2017-04-21T03:28:25.188Z,1024.62
2017-04-21T03:29:25.197Z,1024.63
2017-04-21T03:30:25.199Z,1024.6
2017-04-21T03:31:25.205Z,1024.64
2017-04-21T03:32:25.209Z,1024.67
2017-04-21T03:33:25.214Z,1024.67
2017-04-21T03:34:25.221Z,1024.66
2017-04-21T03:35:25.226Z,1024.66
2017-04-21T03:36:25.232Z,1024.65
2017-04-21T03:37:25.236Z,1024.67
2017-04-21T03:38:25.240Z,1024.65
2017-04-21T03:39:25.295Z,1024.67
2017-04-21T03:40:25.304Z,1024.61
2017-04-21T03:41:25.257Z,1024.66
2017-04-21T03:42:25.263Z,1024.61
2017-04-21T03:43:25.270Z,1024.6
2017-04-21T03:44:25.276Z,1024.57
2017-04-21T03:45:25.330Z,1024.56
2017-04-21T03:46:25.285Z,1024.57
2017-04-21T03:47:25.292Z,1024.58
2017-04-21T03:48:25.346Z,1024.59
2017-04-21T03:49:25.301Z,1024.54
2017-04-21T03:50:25.356Z,1024.57
2017-04-21T03:51:25.317Z,1024.54
2017-04-21T03:52:25.319Z,1024.5
2017-04-21T03:53:25.323Z,1024.5
2017-04-21T03:54:25.351Z,1024.47
2017-04-21T03:55:25.333Z,1024.49
2017-04-21T03:56:25.340Z,1024.49
2017-04-21T03:57:25.346Z,1024.49
2017-04-21T03:58:25.401Z,1024.47
2017-04-21T03:59:25.355Z,1024.48
2017-04-21T04:00:25.360Z,1024.48
2017-04-21T04:01:25.416Z,1024.48
2017-04-21T04:02:25.371Z,1024.48
2017-04-21T04:03:25.376Z,1024.43
2017-04-21T04:04:25.382Z,1024.46
2017-04-21T04:05:25.387Z,1024.47
2017-04-21T04:06:25.391Z,1024.44
2017-04-21T04:07:25.397Z,1024.43
2017-04-21T04:08:25.404Z,1024.45
2017-04-21T04:09:25.409Z,1024.43
2017-04-21T04:10:25.413Z,1024.47
2017-04-21T04:11:25.468Z,1024.41
2017-04-21T04:12:25.473Z,1024.41
2017-04-21T04:13:25.429Z,1024.41
2017-04-21T04:14:25.434Z,1024.41
2017-04-21T04:15:25.440Z,1024.42
2017-04-21T04:16:25.446Z,1024.39
2017-04-21T04:17:25.450Z,1024.41
2017-04-21T04:18:25.455Z,1024.42
2017-04-21T04:19:25.460Z,1024.41
2017-04-21T04:20:25.515Z,1024.39
2017-04-21T04:21:25.470Z,1024.37
2017-04-21T04:22:25.478Z,1024.33
2017-04-21T04:23:25.482Z,1024.32
2017-04-21T04:24:25.486Z,1024.34
2017-04-21T04:25:25.492Z,1024.34
2017-04-21T04:26:25.497Z,1024.34
2017-04-21T04:27:25.505Z,1024.37
2017-04-21T04:28:25.507Z,1024.38
2017-04-21T04:29:25.512Z,1024.43
2017-04-21T04:30:25.517Z,1024.42
2017-04-21T04:31:25.574Z,1024.42
2017-04-21T04:32:25.528Z,1024.43
2017-04-21T04:33:25.534Z,1024.4
2017-04-21T04:34:25.539Z,1024.4
2017-04-21T04:35:25.545Z,1024.4
2017-04-21T04:36:25.599Z,1024.36
2017-04-21T04:37:25.554Z,1024.4
2017-04-21T04:38:25.560Z,1024.41
2017-04-21T04:39:25.565Z,1024.4
2017-04-21T04:40:25.571Z,1024.39
2017-04-21T04:41:25.575Z,1024.44
2017-04-21T04:42:25.581Z,1024.44
2017-04-21T04:43:25.637Z,1024.45
2017-04-21T04:44:25.641Z,1024.46
2017-04-21T04:45:25.597Z,1024.48
2017-04-21T04:46:25.654Z,1024.48
2017-04-21T04:47:25.625Z,1024.53
2017-04-21T04:48:25.613Z,1024.46
2017-04-21T04:49:25.618Z,1024.52
2017-04-21T04:50:25.622Z,1024.53
2017-04-21T04:51:25.627Z,1024.54
2017-04-21T04:52:25.634Z,1024.52
2017-04-21T04:53:25.639Z,1024.53
2017-04-21T04:54:25.643Z,1024.57
2017-04-21T04:55:25.649Z,1024.53
2017-04-21T04:56:25.655Z,1024.52
2017-04-21T04:57:25.660Z,1024.58
2017-04-21T04:58:25.666Z,1024.57
2017-04-21T04:59:25.721Z,1024.5
2017-04-21T05:00:25.676Z,1024.6
2017-04-21T05:01:25.680Z,1024.56
2017-04-21T05:02:25.686Z,1024.6
2017-04-21T05:03:25.692Z,1024.63
2017-04-21T05:04:25.698Z,1024.59
2017-04-21T05:05:25.702Z,1024.59
2017-04-21T05:06:25.707Z,1024.61
2017-04-21T05:07:25.715Z,1024.63
2017-04-21T05:08:25.718Z,1024.57
2017-04-21T05:09:25.773Z,1024.58
2017-04-21T05:10:25.780Z,1024.6
2017-04-21T05:11:25.734Z,1024.59
2017-04-21T05:12:25.739Z,1024.59
2017-04-21T05:13:25.744Z,1024.58
2017-04-21T05:14:25.751Z,1024.58
2017-04-21T05:15:25.805Z,1024.55
2017-04-21T05:16:25.808Z,1024.59
2017-04-21T05:17:25.768Z,1024.58
2017-04-21T05:18:25.770Z,1024.56
2017-04-21T05:19:25.776Z,1024.49
2017-04-21T05:20:25.783Z,1024.49
2017-04-21T05:21:25.786Z,1024.45
2017-04-21T05:22:25.794Z,1024.44
2017-04-21T05:23:25.847Z,1024.46
2017-04-21T05:24:25.802Z,1024.43
2017-04-21T05:25:25.808Z,1024.4
2017-04-21T05:26:25.864Z,1024.41
2017-04-21T05:27:25.818Z,1024.4
2017-04-21T05:28:25.824Z,1024.42
2017-04-21T05:29:25.830Z,1024.41
2017-04-21T05:30:25.833Z,1024.41
2017-04-21T05:31:25.838Z,1024.37
2017-04-21T05:32:25.845Z,1024.4
2017-04-21T05:33:25.848Z,1024.38
2017-04-21T05:34:25.864Z,1024.37
2017-04-21T05:35:25.860Z,1024.38
2017-04-21T05:36:25.864Z,1024.39
2017-04-21T05:37:25.870Z,1024.39
2017-04-21T05:38:25.923Z,1024.37
2017-04-21T05:39:25.881Z,1024.41
2017-04-21T05:40:25.886Z,1024.33
2017-04-21T05:41:25.892Z,1024.28
2017-04-21T05:42:25.894Z,1024.34
2017-04-21T05:43:25.951Z,1024.3
2017-04-21T05:44:25.905Z,1024.31
2017-04-21T05:45:25.911Z,1024.31
2017-04-21T05:46:25.916Z,1024.27
2017-04-21T05:47:25.920Z,1024.35
2017-04-21T05:48:25.926Z,1024.31
2017-04-21T05:49:25.981Z,1024.27
2017-04-21T05:50:25.936Z,1024.28
2017-04-21T05:51:25.990Z,1024.32
2017-04-21T05:52:25.946Z,1024.31
2017-04-21T05:53:25.951Z,1024.32
2017-04-21T05:54:26.005Z,1024.28
2017-04-21T05:55:25.963Z,1024.34
2017-04-21T05:56:25.966Z,1024.31
2017-04-21T05:57:25.973Z,1024.27
2017-04-21T05:58:25.978Z,1024.36
2017-04-21T05:59:25.987Z,1024.34
2017-04-21T06:00:25.987Z,1024.31
2017-04-21T06:01:26.042Z,1024.32
2017-04-21T06:02:26.048Z,1024.27
2017-04-21T06:03:26.004Z,1024.33
2017-04-21T06:04:26.009Z,1024.29
2017-04-21T06:05:26.012Z,1024.26
2017-04-21T06:06:26.037Z,1024.27
2017-04-21T06:07:26.024Z,1024.28
2017-04-21T06:08:26.079Z,1024.3
2017-04-21T06:09:26.035Z,1024.34
2017-04-21T06:10:26.040Z,1024.28
2017-04-21T06:11:26.045Z,1024.23
2017-04-21T06:12:26.050Z,1024.27
2017-04-21T06:13:26.056Z,1024.25
2017-04-21T06:14:26.061Z,1024.25
2017-04-21T06:15:26.065Z,1024.29
2017-04-21T06:16:26.073Z,1024.27
2017-04-21T06:17:26.079Z,1024.22
2017-04-21T06:18:26.081Z,1024.22
2017-04-21T06:19:26.136Z,1024.25
2017-04-21T06:20:26.092Z,1024.25
2017-04-21T06:21:26.098Z,1024.29
2017-04-21T06:22:26.101Z,1024.25
2017-04-21T06:23:26.107Z,1024.3
2017-04-21T06:24:26.113Z,1024.31
2017-04-21T06:25:26.117Z,1024.24
2017-04-21T06:26:26.123Z,1024.25
2017-04-21T06:27:26.128Z,1024.3
2017-04-21T06:28:26.134Z,1024.22
2017-04-21T06:29:26.189Z,1024.26
2017-04-21T06:30:26.151Z,1024.29
2017-04-21T06:31:26.199Z,1024.24
2017-04-21T06:32:26.156Z,1024.25
2017-04-21T06:33:26.157Z,1024.29
2017-04-21T06:34:26.164Z,1024.19
2017-04-21T06:35:26.171Z,1024.19
2017-04-21T06:36:26.175Z,1024.23
2017-04-21T06:37:26.178Z,1024.2
2017-04-21T06:38:26.184Z,1024.18
2017-04-21T06:39:26.240Z,1024.2
2017-04-21T06:40:26.244Z,1024.24
2017-04-21T06:41:26.249Z,1024.23
2017-04-21T06:42:26.204Z,1024.28
2017-04-21T06:43:26.210Z,1024.32
2017-04-21T06:44:26.213Z,1024.3
2017-04-21T06:45:27.219Z,1024.25
2017-04-21T06:46:26.225Z,1024.26
2017-04-21T06:47:26.280Z,1024.3
2017-04-21T06:48:26.235Z,1024.34
2017-04-21T06:49:26.240Z,1024.31
2017-04-21T06:50:26.246Z,1024.27
2017-04-21T06:51:26.251Z,1024.27
2017-04-21T06:52:26.255Z,1024.31
2017-04-21T06:53:26.311Z,1024.27
2017-04-21T06:54:26.265Z,1024.25
2017-04-21T06:55:26.271Z,1024.28
2017-04-21T06:56:26.276Z,1024.24
2017-04-21T06:57:26.282Z,1024.25
2017-04-21T06:58:26.286Z,1024.21
2017-04-21T06:59:26.342Z,1024.22
2017-04-21T07:00:26.354Z,1024.22
2017-04-21T07:01:26.302Z,1024.22
2017-04-21T07:02:26.307Z,1024.18
2017-04-21T07:03:26.312Z,1024.2
2017-04-21T07:04:26.315Z,1024.16
2017-04-21T07:05:26.323Z,1024.23
2017-04-21T07:06:26.328Z,1024.15
2017-04-21T07:07:26.329Z,1024.17
2017-04-21T07:08:26.338Z,1024.16
2017-04-21T07:09:26.341Z,1024.17
2017-04-21T07:10:26.350Z,1024.12
2017-04-21T07:11:26.353Z,1024.11
2017-04-21T07:12:26.358Z,1024.1
2017-04-21T07:13:26.362Z,1024.04
2017-04-21T07:14:26.367Z,1024.08
2017-04-21T07:15:26.423Z,1024.15
2017-04-21T07:16:26.377Z,1024.15
2017-04-21T07:17:26.383Z,1024.13
2017-04-21T07:18:26.389Z,1024.13
2017-04-21T07:19:26.394Z,1024.14
2017-04-21T07:20:26.399Z,1024.16
2017-04-21T07:21:26.454Z,1024.16
2017-04-21T07:22:26.410Z,1024.12
2017-04-21T07:23:26.415Z,1024.13
2017-04-21T07:24:26.420Z,1024.17
2017-04-21T07:25:26.427Z,1024.12
2017-04-21T07:26:26.429Z,1024.16
2017-04-21T07:27:26.485Z,1024.14
2017-04-21T07:28:26.441Z,1024.14
2017-04-21T07:29:26.446Z,1024.16
2017-04-21T07:30:26.452Z,1024.12
2017-04-21T07:31:26.456Z,1024.14
2017-04-21T07:32:26.460Z,1024.13
2017-04-21T07:33:26.467Z,1024.15
2017-04-21T07:34:26.521Z,1024.17
2017-04-21T07:35:26.477Z,1024.18
2017-04-21T07:36:26.481Z,1024.16
2017-04-21T07:37:26.488Z,1024.2
2017-04-21T07:38:26.541Z,1024.18
2017-04-21T07:39:26.497Z,1024.18
2017-04-21T07:40:27.054Z,1024.19
2017-04-21T07:41:26.509Z,1024.21
2017-04-21T07:42:26.512Z,1024.18
2017-04-21T07:43:26.518Z,1024.19
2017-04-21T07:44:26.521Z,1024.21
2017-04-21T07:45:26.529Z,1024.25
2017-04-21T07:46:26.532Z,1024.24
2017-04-21T07:47:26.586Z,1024.21
2017-04-21T07:48:26.544Z,1024.22
2017-04-21T07:49:26.548Z,1024.2
2017-04-21T07:50:26.553Z,1024.22
2017-04-21T07:51:26.558Z,1024.22
2017-04-21T07:52:26.564Z,1024.18
2017-04-21T07:53:26.567Z,1024.27
2017-04-21T07:54:26.624Z,1024.23
2017-04-21T07:55:26.628Z,1024.2
2017-04-21T07:56:26.584Z,1024.23
2017-04-21T07:57:26.590Z,1024.23
2017-04-21T07:58:26.596Z,1024.23
2017-04-21T07:59:26.599Z,1024.22
2017-04-21T08:00:26.653Z,1024.25
2017-04-21T08:01:58.601Z,1024.25
2017-04-21T08:02:58.606Z,1024.3
2017-04-21T08:03:58.612Z,1024.31
2017-04-21T08:04:58.617Z,1024.29
2017-04-21T08:05:58.622Z,1024.28
2017-04-21T08:06:58.626Z,1024.26
2017-04-21T08:07:58.631Z,1024.3
2017-04-21T08:08:58.638Z,1024.32
2017-04-21T08:09:58.642Z,1024.27
2017-04-21T08:10:58.647Z,1024.29
2017-04-21T08:11:58.653Z,1024.32
2017-04-21T08:12:58.658Z,1024.3
2017-04-21T08:13:58.663Z,1024.29
2017-04-21T08:14:58.718Z,1024.3
2017-04-21T08:15:58.674Z,1024.27
2017-04-21T08:16:58.678Z,1024.29
2017-04-21T08:17:58.684Z,1024.3
2017-04-21T08:18:58.690Z,1024.24
2017-04-21T08:19:58.694Z,1024.22
2017-04-21T08:20:58.699Z,1024.26
2017-04-21T08:21:58.704Z,1024.26
2017-04-21T08:22:58.710Z,1024.22
2017-04-21T08:23:58.766Z,1024.18
2017-04-21T08:24:58.771Z,1024.14
2017-04-21T08:25:58.726Z,1024.17
2017-04-21T08:26:58.735Z,1024.13
2017-04-21T08:27:58.742Z,1024.12
2017-04-21T08:28:58.742Z,1024.11
2017-04-21T08:29:58.746Z,1024.13
2017-04-21T08:30:58.751Z,1024.11
2017-04-21T08:31:58.757Z,1024.12
2017-04-21T08:32:58.763Z,1024.12
2017-04-21T08:33:58.769Z,1024.16
2017-04-21T08:34:58.774Z,1024.14
2017-04-21T08:35:58.778Z,1024.12
2017-04-21T08:36:58.783Z,1024.15
2017-04-21T08:37:58.788Z,1024.12
2017-04-21T08:38:58.794Z,1024.14
2017-04-21T08:39:58.800Z,1024.14
2017-04-21T08:40:58.802Z,1024.12
2017-04-21T08:41:58.809Z,1024.12
2017-04-21T08:42:58.813Z,1024.17
2017-04-21T08:43:58.820Z,1024.15
2017-04-21T08:44:58.824Z,1024.14
2017-04-21T08:45:58.828Z,1024.21
2017-04-21T08:46:58.835Z,1024.19
2017-04-21T08:47:58.843Z,1024.21
2017-04-21T08:48:58.897Z,1024.2
2017-04-21T08:49:58.850Z,1024.25
2017-04-21T08:50:58.855Z,1024.22
2017-04-21T08:51:58.862Z,1024.26
2017-04-21T08:52:58.867Z,1024.25
2017-04-21T08:53:58.921Z,1024.2
2017-04-21T08:54:58.928Z,1024.23
2017-04-21T08:55:58.882Z,1024.2
2017-04-21T08:56:58.887Z,1024.21
2017-04-21T08:57:58.893Z,1024.22
2017-04-21T08:58:58.899Z,1024.19
2017-04-21T08:59:58.903Z,1024.21
2017-04-21T09:00:58.958Z,1024.2
2017-04-21T09:01:58.914Z,1024.15
2017-04-21T09:02:58.920Z,1024.21
2017-04-21T09:03:58.980Z,1024.2
2017-04-21T09:04:58.930Z,1024.21
2017-04-21T09:05:58.937Z,1024.18
2017-04-21T09:06:58.940Z,1024.23
2017-04-21T09:07:58.994Z,1024.27
2017-04-21T09:08:59.001Z,1024.27
2017-04-21T09:09:58.956Z,1024.19
2017-04-21T09:10:58.961Z,1024.2
2017-04-21T09:11:58.964Z,1024.17
2017-04-21T09:12:58.971Z,1024.2
2017-04-21T09:13:58.979Z,1024.18
2017-04-21T09:14:58.981Z,1024.17
2017-04-21T09:15:58.986Z,1024.17
2017-04-21T09:16:58.996Z,1024.16
2017-04-21T09:17:59.000Z,1024.14
2017-04-21T09:18:59.002Z,1024.15
2017-04-21T09:19:59.009Z,1024.19
2017-04-21T09:20:59.015Z,1024.17
2017-04-21T09:21:59.036Z,1024.2
2017-04-21T09:22:59.024Z,1024.17
2017-04-21T09:23:59.028Z,1024.12
2017-04-21T09:24:59.035Z,1024.11
2017-04-21T09:25:59.040Z,1024.14
2017-04-21T09:26:59.096Z,1024.09
2017-04-21T09:27:59.052Z,1024.11
2017-04-21T09:28:59.057Z,1024.06
2017-04-21T09:29:59.062Z,1024.05
2017-04-21T09:30:59.069Z,1024
2017-04-21T09:32:52.388Z,1024.02
2017-04-21T09:36:11.364Z,1023.94
2017-04-21T09:37:11.369Z,1023.94
2017-04-21T09:38:11.375Z,1023.93
2017-04-21T09:39:11.682Z,1023.89
2017-04-21T09:40:11.389Z,1023.93
2017-04-21T09:41:11.394Z,1023.92
2017-04-21T09:42:11.400Z,1023.89
2017-04-21T09:43:59.969Z,1023.86
2017-04-21T09:44:59.976Z,1023.93
2017-04-21T09:45:59.982Z,1023.93
2017-04-21T09:46:59.986Z,1023.87
2017-04-21T09:47:59.991Z,1023.95
2017-04-21T09:48:59.998Z,1023.95
2017-04-21T09:50:00.013Z,1023.9
2017-04-21T09:51:00.009Z,1023.87
2017-04-21T09:52:00.015Z,1023.93
2017-04-21T10:02:09.029Z,1023.81
2017-04-21T10:08:24.435Z,1023.75
2017-04-21T10:09:24.441Z,1023.75
2017-04-21T10:10:24.449Z,1023.7
2017-04-21T10:11:24.454Z,1023.68
2017-04-21T10:12:24.462Z,1023.7
2017-04-21T10:13:24.468Z,1023.69
2017-04-21T10:14:24.473Z,1023.7
2017-04-21T10:15:24.479Z,1023.75
2017-04-21T10:16:24.501Z,1023.74
2017-04-21T10:17:24.491Z,1023.74
2017-04-21T10:18:24.496Z,1023.72
2017-04-21T10:19:24.502Z,1023.69
2017-04-21T10:20:24.508Z,1023.7
2017-04-21T10:21:24.513Z,1023.75
2017-04-21T10:22:24.517Z,1023.74
2017-04-21T10:23:24.531Z,1023.72
2017-04-21T10:24:24.533Z,1023.69
2017-04-21T10:25:24.536Z,1023.67
2017-04-21T10:26:24.543Z,1023.71
2017-04-21T10:27:24.600Z,1023.69
2017-04-21T10:28:24.554Z,1023.71
2017-04-21T10:29:24.562Z,1023.71
2017-04-21T10:30:24.568Z,1023.66
2017-04-21T10:31:24.572Z,1023.69
2017-04-21T10:32:24.577Z,1023.65
2017-04-21T10:33:24.583Z,1023.67
2017-04-21T10:34:24.589Z,1023.65
2017-04-21T10:35:24.604Z,1023.64
2017-04-21T10:36:24.602Z,1023.64
2017-04-21T10:37:24.658Z,1023.63
2017-04-21T10:38:24.613Z,1023.65
2017-04-21T10:39:24.623Z,1023.62
2017-04-21T10:40:24.625Z,1023.65
2017-04-21T10:41:24.630Z,1023.67
2017-04-21T10:42:24.637Z,1023.63
2017-04-21T10:43:24.690Z,1023.64
2017-04-21T10:44:24.648Z,1023.66
2017-04-21T10:45:24.653Z,1023.67
2017-04-21T10:46:24.659Z,1023.6
2017-04-21T10:47:24.664Z,1023.61
2017-04-21T10:48:24.670Z,1023.61
2017-04-21T10:49:24.677Z,1023.59
2017-04-21T10:50:24.683Z,1023.58
2017-04-21T10:51:24.687Z,1023.57
2017-04-21T10:52:24.692Z,1023.55
2017-04-21T10:53:24.698Z,1023.56
2017-04-21T10:54:24.703Z,1023.51
2017-04-21T10:55:24.711Z,1023.5
2017-04-21T10:56:24.716Z,1023.49
2017-04-21T10:57:24.721Z,1023.49
2017-04-21T10:58:24.727Z,1023.49
2017-04-21T10:59:24.732Z,1023.45
2017-04-21T11:00:24.738Z,1023.47
2017-04-21T11:01:24.746Z,1023.44
2017-04-21T11:02:24.749Z,1023.41
2017-04-21T11:03:24.757Z,1023.45
2017-04-21T11:04:24.762Z,1023.45
2017-04-21T11:05:24.766Z,1023.42
2017-04-21T11:06:24.772Z,1023.4
2017-04-21T11:07:24.778Z,1023.31
2017-04-21T11:08:24.785Z,1023.32
2017-04-21T11:09:24.789Z,1023.34
2017-04-21T11:10:24.795Z,1023.37
2017-04-21T11:11:24.801Z,1023.35
2017-04-21T11:12:24.807Z,1023.37
2017-04-21T11:13:24.814Z,1023.4
2017-04-21T11:14:24.819Z,1023.33
2017-04-21T11:15:24.825Z,1023.35
2017-04-21T11:16:24.829Z,1023.3
2017-04-21T11:17:24.837Z,1023.3
2017-04-21T11:18:24.841Z,1023.32
2017-04-21T11:19:24.848Z,1023.26
2017-04-21T11:20:24.853Z,1023.29
2017-04-21T11:21:24.858Z,1023.21
2017-04-21T11:22:24.863Z,1023.18
2017-04-21T11:23:24.870Z,1023.16
2017-04-21T11:24:24.874Z,1023.17
2017-04-21T11:25:24.880Z,1023.17
2017-04-21T11:26:24.889Z,1023.16
2017-04-21T11:27:24.892Z,1023.18
2017-04-21T11:28:24.898Z,1023.19
2017-04-21T11:29:24.904Z,1023.11
2017-04-21T11:30:24.910Z,1023.14
2017-04-21T11:31:24.914Z,1023.12
2017-04-21T11:32:24.921Z,1023.09
2017-04-21T11:33:24.926Z,1023.07
2017-04-21T11:34:24.931Z,1023.08
2017-04-21T11:35:24.937Z,1023.12
2017-04-21T11:36:24.940Z,1023.13
2017-04-21T11:37:24.948Z,1023.09
2017-04-21T11:38:24.952Z,1023.08
2017-04-21T11:39:24.957Z,1023.12
2017-04-21T11:40:24.963Z,1023.12
2017-04-21T11:41:25.019Z,1023.09
2017-04-21T11:42:24.974Z,1023.12
2017-04-21T11:43:24.981Z,1023.11
2017-04-21T11:44:25.036Z,1023.11
2017-04-21T11:45:24.991Z,1023.14
2017-04-21T11:46:24.999Z,1023.09
2017-04-21T11:47:25.002Z,1023.07
2017-04-21T11:48:25.010Z,1023.09
2017-04-21T11:49:25.014Z,1023.04
2017-04-21T11:50:25.021Z,1023.03
2017-04-21T11:51:25.026Z,1023.03
2017-04-21T11:52:25.033Z,1023.02
2017-04-21T11:53:25.086Z,1023.05
2017-04-21T11:54:25.045Z,1023.03
2017-04-21T11:55:25.049Z,1023.04
2017-04-21T11:56:25.052Z,1023.05
2017-04-21T11:57:25.056Z,1022.97
2017-04-21T11:58:25.062Z,1022.97
2017-04-21T11:59:25.071Z,1022.96
2017-04-21T12:00:25.076Z,1022.96
2017-04-21T12:01:25.080Z,1022.96
2017-04-21T12:02:25.135Z,1022.9
2017-04-21T12:03:25.093Z,1022.88
2017-04-21T12:04:25.097Z,1022.88
2017-04-21T12:05:25.102Z,1022.83
2017-04-21T12:06:25.110Z,1022.82
2017-04-21T12:07:25.116Z,1022.79
2017-04-21T12:08:25.120Z,1022.76
2017-04-21T12:09:25.125Z,1022.76
2017-04-21T12:10:25.131Z,1022.8
2017-04-21T12:11:25.133Z,1022.73
2017-04-21T12:12:25.143Z,1022.7
2017-04-21T12:13:25.149Z,1022.71
2017-04-21T12:14:25.154Z,1022.68
2017-04-21T12:15:25.160Z,1022.67
2017-04-21T12:16:25.163Z,1022.7
2017-04-21T12:17:25.168Z,1022.68
2017-04-21T12:18:25.173Z,1022.65
2017-04-21T12:19:25.178Z,1022.67
2017-04-21T12:20:25.185Z,1022.61
2017-04-21T12:21:25.241Z,1022.65
2017-04-21T12:22:25.246Z,1022.61
2017-04-21T12:23:25.201Z,1022.58
2017-04-21T12:24:25.209Z,1022.55
2017-04-21T12:25:25.214Z,1022.53
2017-04-21T12:26:25.219Z,1022.47
2017-04-21T12:27:25.224Z,1022.54